Time;durP1;ratioP1;P1;durP2;ratioP2;P2;SDS_P1;SDS_P2;PMS_P1;PMS_P2;Temp;Humidity;BMP_temperature;BMP_pressure;BME280_temperature;BME280_humidity;BME280_pressure;Samples;Min_cycle;Max_cycle;Signal;HPM_P1;HPM_P2
2022/05/12 00:02:18;;;;;;;2.93;2.70;;;18.10;83.30;;;;;;6274683;22;20774;-68
2022/05/12 00:04:45;;;;;;;3.10;2.80;;;18.20;83.50;;;;;;6274375;22;20422;-68
2022/05/12 00:07:11;;;;;;;3.17;2.80;;;18.20;83.60;;;;;;6274244;22;20558;-70
2022/05/12 00:09:38;;;;;;;2.73;2.53;;;18.30;83.90;;;;;;6274184;22;20770;-70
2022/05/12 00:12:05;;;;;;;2.70;2.50;;;18.30;84.20;;;;;;6274219;22;20551;-70
2022/05/12 00:14:32;;;;;;;3.13;2.83;;;18.40;85.60;;;;;;6273939;22;20422;-71
2022/05/12 00:16:59;;;;;;;3.10;2.80;;;18.30;85.70;;;;;;6273850;22;20537;-69
2022/05/12 00:19:29;;;;;;;3.40;3.20;;;18.30;86.40;;;;;;6273720;22;20438;-68
2022/05/12 00:21:56;;;;;;;3.27;2.70;;;18.20;87.20;;;;;;6274811;22;20414;-69
2022/05/12 00:24:24;;;;;;;2.60;2.40;;;18.20;85.60;;;;;;6274328;22;20418;-68
2022/05/12 00:26:50;;;;;;;2.60;2.40;;;18.10;86.30;;;;;;6274489;22;20415;-68
2022/05/12 00:29:17;;;;;;;3.10;2.87;;;18.10;88.30;;;;;;6273473;22;20438;-68
2022/05/12 00:31:46;;;;;;;3.33;2.70;;;18.00;88.50;;;;;;6274666;22;20418;-69
2022/05/12 00:34:14;;;;;;;3.20;2.90;;;18.00;86.90;;;;;;6274269;22;20425;-68
2022/05/12 00:36:42;;;;;;;2.93;2.63;;;18.00;86.50;;;;;;6274201;22;20438;-68
2022/05/12 00:39:09;;;;;;;3.87;2.90;;;18.00;87.80;;;;;;6273500;22;20441;-68
2022/05/12 00:41:36;;;;;;;4.03;3.10;;;17.90;87.80;;;;;;6274126;22;20425;-68
2022/05/12 00:44:06;;;;;;;3.20;3.00;;;17.90;89.40;;;;;;6274523;22;20441;-68
2022/05/12 00:46:36;;;;;;;3.47;2.87;;;17.90;88.70;;;;;;6274158;22;20418;-69
2022/05/12 00:49:06;;;;;;;4.10;2.50;;;17.80;90.20;;;;;;6273392;22;20442;-68
2022/05/12 00:51:35;;;;;;;3.17;2.90;;;17.60;90.50;;;;;;6274621;22;20746;-69
2022/05/12 00:54:06;;;;;;;2.90;2.70;;;17.50;90.70;;;;;;6274001;22;20423;-69
2022/05/12 00:56:34;;;;;;;4.00;3.40;;;17.50;90.60;;;;;;6273953;22;20962;-68
2022/05/12 00:59:07;;;;;;;4.43;3.33;;;17.50;90.60;;;;;;6272953;22;20462;-69
2022/05/12 01:01:33;;;;;;;5.63;2.73;;;17.40;90.70;;;;;;6274334;22;20454;-68
2022/05/12 01:04:01;;;;;;;4.10;3.10;;;17.40;91.00;;;;;;6273644;22;20426;-68
2022/05/12 01:06:28;;;;;;;3.33;3.03;;;17.40;90.40;;;;;;6274252;22;20411;-69
2022/05/12 01:08:55;;;;;;;2.90;2.70;;;17.40;90.30;;;;;;6272890;22;20438;-68
2022/05/12 01:11:24;;;;;;;3.50;3.20;;;17.50;90.00;;;;;;6273928;22;20425;-68
2022/05/12 01:13:55;;;;;;;3.07;2.77;;;17.60;90.40;;;;;;6274135;22;20418;-69
2022/05/12 01:16:42;;;;;;;3.90;2.90;;;17.60;90.00;;;;;;6273531;22;20449;-68
2022/05/12 01:19:13;;;;;;;3.37;3.07;;;17.70;90.40;;;;;;6273566;22;20492;-68
2022/05/12 01:21:40;;;;;;;5.00;3.33;;;17.70;90.40;;;;;;6274832;22;20722;-68
2022/05/12 01:24:09;;;;;;;4.10;3.00;;;17.70;90.10;;;;;;6274702;22;20895;-69
2022/05/12 01:26:37;;;;;;;3.10;2.90;;;17.70;90.30;;;;;;6274073;22;20421;-68
2022/05/12 01:29:04;;;;;;;3.33;3.03;;;17.70;90.40;;;;;;6272646;22;20438;-68
2022/05/12 01:31:32;;;;;;;4.53;3.33;;;17.70;90.70;;;;;;6274093;22;20753;-69
2022/05/12 01:33:59;;;;;;;4.37;3.30;;;17.60;90.40;;;;;;6283269;22;20525;-68
2022/05/12 01:36:26;;;;;;;4.50;3.00;;;17.70;90.50;;;;;;6273641;22;20446;-68
2022/05/12 01:38:53;;;;;;;5.57;3.00;;;17.70;90.40;;;;;;6272625;22;20442;-68
2022/05/12 01:41:21;;;;;;;3.30;3.00;;;17.70;90.50;;;;;;6273774;22;20937;-68
2022/05/12 01:43:47;;;;;;;4.50;3.40;;;17.70;90.40;;;;;;6273470;22;20648;-68
2022/05/12 01:46:14;;;;;;;3.60;3.30;;;17.70;90.40;;;;;;6273022;22;21175;-68
2022/05/12 01:48:42;;;;;;;5.63;2.87;;;17.80;90.50;;;;;;6272886;22;20461;-68
2022/05/12 01:51:09;;;;;;;4.00;3.70;;;17.80;90.40;;;;;;6272863;22;20758;-68
2022/05/12 01:53:36;;;;;;;3.20;2.90;;;17.90;90.40;;;;;;6273768;22;20418;-68
2022/05/12 01:56:05;;;;;;;2.97;2.77;;;17.90;90.50;;;;;;6273095;22;20445;-68
2022/05/12 01:58:33;;;;;;;4.20;3.20;;;17.90;90.70;;;;;;6272789;22;20438;-68
2022/05/12 02:01:00;;;;;;;4.00;3.40;;;17.90;90.70;;;;;;6273295;22;20426;-68
2022/05/12 02:03:27;;;;;;;3.90;3.30;;;17.90;90.70;;;;;;6273497;22;20425;-68
2022/05/12 02:05:54;;;;;;;3.30;3.00;;;17.90;90.80;;;;;;6273437;22;20438;-68
2022/05/12 02:08:20;;;;;;;4.43;3.70;;;17.90;90.70;;;;;;6272875;22;20834;-69
2022/05/12 02:10:49;;;;;;;5.50;3.17;;;18.00;90.70;;;;;;6273700;22;20426;-68
2022/05/12 02:13:18;;;;;;;3.77;3.30;;;18.10;90.50;;;;;;6272870;22;20512;-71
2022/05/12 02:15:47;;;;;;;4.03;2.93;;;18.10;90.70;;;;;;6273516;22;20419;-68
2022/05/12 02:18:15;;;;;;;7.10;3.00;;;18.20;90.60;;;;;;6272159;22;20439;-68
2022/05/12 02:20:41;;;;;;;3.10;2.90;;;18.20;90.60;;;;;;6273431;22;20421;-68
2022/05/12 02:23:08;;;;;;;3.33;2.90;;;18.20;90.90;;;;;;6273332;22;20421;-68
2022/05/12 02:25:35;;;;;;;3.57;2.70;;;18.20;90.70;;;;;;6273557;22;20414;-69
2022/05/12 02:28:02;;;;;;;3.97;3.10;;;18.20;91.00;;;;;;6272673;22;21094;-69
2022/05/12 02:30:31;;;;;;;4.60;3.17;;;18.10;91.80;;;;;;6273175;22;20421;-69
2022/05/12 02:32:59;;;;;;;3.07;2.87;;;18.10;91.90;;;;;;6273397;22;20417;-69
2022/05/12 02:35:27;;;;;;;5.57;3.40;;;18.00;91.60;;;;;;6273351;22;20779;-69
2022/05/12 02:37:54;;;;;;;3.30;3.00;;;17.90;92.20;;;;;;6274584;22;20821;-69
2022/05/12 02:40:23;;;;;;;3.40;3.10;;;17.70;92.80;;;;;;6275287;22;20746;-68
2022/05/12 02:42:50;;;;;;;3.70;3.30;;;17.60;93.20;;;;;;6275346;22;20421;-69
2022/05/12 02:45:17;;;;;;;3.73;3.43;;;17.50;93.40;;;;;;6275148;22;20417;-69
2022/05/12 02:47:44;;;;;;;4.93;3.50;;;17.40;93.60;;;;;;6274667;22;20961;-68
2022/05/12 02:50:15;;;;;;;3.30;3.00;;;17.30;93.90;;;;;;6274818;22;20418;-69
2022/05/12 02:52:42;;;;;;;4.17;3.80;;;17.20;94.10;;;;;;6274994;22;20405;-68
2022/05/12 02:55:10;;;;;;;2.90;2.70;;;17.10;94.30;;;;;;6274778;22;20509;-69
2022/05/12 02:57:36;;;;;;;3.13;2.93;;;17.00;94.80;;;;;;6275295;22;20438;-68
2022/05/12 03:00:04;;;;;;;3.10;2.90;;;16.90;95.30;;;;;;6273899;22;20505;-69
2022/05/12 03:02:31;;;;;;;3.43;3.13;;;16.80;95.10;;;;;;6275141;22;20716;-68
2022/05/12 03:04:58;;;;;;;3.93;3.57;;;16.80;95.30;;;;;;6272559;22;20451;-71
2022/05/12 03:07:26;;;;;;;5.80;3.63;;;16.70;95.70;;;;;;6275850;22;20405;-71
2022/05/12 03:09:53;;;;;;;5.50;3.60;;;16.60;95.90;;;;;;6274457;22;20434;-71
2022/05/12 03:12:19;;;;;;;4.03;3.30;;;16.50;96.30;;;;;;6274954;22;20414;-71
2022/05/12 03:14:46;;;;;;;4.23;3.83;;;16.40;96.30;;;;;;6275151;22;20410;-71
2022/05/12 03:17:13;;;;;;;4.83;3.37;;;16.30;96.60;;;;;;6274928;22;20756;-71
2022/05/12 03:19:39;;;;;;;3.93;3.53;;;16.30;96.80;;;;;;6274282;22;20441;-71
2022/05/12 03:22:06;;;;;;;3.83;3.57;;;16.20;96.90;;;;;;6274396;22;20425;-70
2022/05/12 03:24:34;;;;;;;5.10;3.27;;;16.10;97.00;;;;;;6274994;22;20418;-70
2022/05/12 03:27:01;;;;;;;3.50;3.30;;;16.10;97.20;;;;;;6274827;22;20410;-70
2022/05/12 03:29:28;;;;;;;3.90;3.43;;;16.10;97.50;;;;;;6273955;22;20452;-70
2022/05/12 03:31:55;;;;;;;4.13;3.73;;;16.00;97.60;;;;;;6275083;22;20464;-72
2022/05/12 03:34:21;;;;;;;4.67;3.77;;;16.00;97.70;;;;;;6274220;22;20907;-71
2022/05/12 03:36:48;;;;;;;4.17;3.70;;;15.90;97.90;;;;;;6273699;22;20859;-71
2022/05/12 03:39:15;;;;;;;3.87;3.57;;;15.90;97.80;;;;;;6272648;22;20524;-71
2022/05/12 03:41:43;;;;;;;3.60;3.30;;;15.80;98.00;;;;;;6273685;22;20945;-72
2022/05/12 03:46:54;;;;;;;3.67;3.37;;;15.60;98.60;;;;;;6273598;22;20804;-71
2022/05/12 03:49:22;;;;;;;3.60;3.30;;;15.60;98.70;;;;;;6273031;22;20438;-71
2022/05/12 03:51:49;;;;;;;4.07;3.70;;;15.50;99.00;;;;;;6272967;22;20423;-72
2022/05/12 03:54:15;;;;;;;3.70;3.40;;;15.40;99.20;;;;;;6274019;22;20203;-72
2022/05/12 03:56:44;;;;;;;5.60;4.47;;;15.40;99.30;;;;;;6274404;22;20763;-72
2022/05/12 03:59:10;;;;;;;5.20;3.50;;;15.40;99.50;;;;;;6273904;22;20438;-71
2022/05/12 04:01:37;;;;;;;4.00;3.30;;;15.40;99.80;;;;;;6275063;22;20419;-72
2022/05/12 04:04:04;;;;;;;3.30;3.00;;;15.40;99.90;;;;;;6275053;22;20466;-72
2022/05/12 04:06:31;;;;;;;3.37;3.00;;;15.40;99.90;;;;;;6274233;22;20758;-71
2022/05/12 04:08:58;;;;;;;2.80;2.40;;;15.50;99.90;;;;;;6272211;22;20461;-72
2022/05/12 04:11:25;;;;;;;3.90;3.00;;;15.70;99.80;;;;;;6274448;22;20450;-72
2022/05/12 04:13:53;;;;;;;3.07;2.70;;;15.90;99.50;;;;;;6274386;22;20418;-72
2022/05/12 04:16:20;;;;;;;4.40;2.80;;;16.10;99.30;;;;;;6274623;22;20422;-71
2022/05/12 04:18:46;;;;;;;2.73;2.53;;;16.30;99.20;;;;;;6272274;22;20458;-70
2022/05/12 04:21:13;;;;;;;3.83;2.30;;;16.50;99.00;;;;;;6272824;22;20420;-69
2022/05/12 04:23:40;;;;;;;2.90;2.70;;;16.70;98.70;;;;;;6274631;22;20836;-70
2022/05/12 04:26:06;;;;;;;2.80;2.60;;;16.80;98.60;;;;;;6273857;22;20722;-71
2022/05/12 04:28:34;;;;;;;3.00;2.23;;;16.90;98.40;;;;;;6273683;22;20430;-72
2022/05/12 04:31:02;;;;;;;3.23;2.50;;;17.00;98.30;;;;;;6274589;22;20414;-73
2022/05/12 04:36:14;;;;;;;4.80;2.50;;;17.10;98.10;;;;;;6274690;22;20433;-70
2022/05/12 04:38:41;;;;;;;3.73;2.40;;;17.20;98.00;;;;;;6274077;22;20438;-70
2022/05/12 04:41:09;;;;;;;2.43;2.03;;;17.30;97.90;;;;;;6274141;22;20911;-70
2022/05/12 04:43:35;;;;;;;2.20;2.00;;;17.40;98.00;;;;;;6274623;22;20453;-70
2022/05/12 04:46:03;;;;;;;2.60;2.17;;;17.40;98.00;;;;;;6274148;22;20915;-73
2022/05/12 04:48:31;;;;;;;5.13;2.37;;;17.50;98.20;;;;;;6273737;22;20970;-71
2022/05/12 04:50:59;;;;;;;4.23;2.03;;;17.50;98.20;;;;;;6274320;22;20461;-70
2022/05/12 04:53:27;;;;;;;5.90;2.30;;;17.50;98.20;;;;;;6274746;22;20422;-70
2022/05/12 04:55:53;;;;;;;2.60;2.00;;;17.50;98.00;;;;;;6274500;22;20513;-70
2022/05/12 04:58:20;;;;;;;2.90;2.13;;;17.60;98.20;;;;;;6271971;22;20446;-70
2022/05/12 05:00:47;;;;;;;2.43;2.23;;;17.60;98.30;;;;;;6274173;22;20418;-70
2022/05/12 05:03:16;;;;;;;5.30;2.43;;;17.60;98.20;;;;;;6274400;22;20422;-71
2022/05/12 05:05:43;;;;;;;2.40;2.20;;;17.70;98.30;;;;;;6274049;22;20422;-70
2022/05/12 05:08:13;;;;;;;3.67;2.43;;;17.80;98.20;;;;;;6270021;22;20521;-71
2022/05/12 05:10:40;;;;;;;2.80;2.57;;;17.80;98.10;;;;;;6273324;22;20399;-71
2022/05/12 05:13:07;;;;;;;3.47;2.27;;;17.90;98.10;;;;;;6272359;22;20421;-70
2022/05/12 05:15:34;;;;;;;3.77;2.47;;;18.00;97.90;;;;;;6272887;22;20798;-70
2022/05/12 05:18:02;;;;;;;2.20;2.00;;;18.10;98.00;;;;;;6272585;22;21112;-70
2022/05/12 05:20:31;;;;;;;2.87;1.97;;;18.10;97.80;;;;;;6272611;22;20410;-70
2022/05/12 05:22:58;;;;;;;2.43;2.23;;;18.20;97.80;;;;;;6273040;22;20468;-70
2022/05/12 05:25:25;;;;;;;3.30;2.40;;;18.30;97.70;;;;;;6271832;22;20417;-71
2022/05/12 05:27:54;;;;;;;4.03;2.20;;;18.30;97.90;;;;;;6273317;22;20406;-71
2022/05/12 05:30:23;;;;;;;2.90;2.60;;;18.40;97.70;;;;;;6272401;22;20786;-71
2022/05/12 05:32:50;;;;;;;4.00;2.60;;;18.40;97.70;;;;;;6272945;22;20426;-71
2022/05/12 05:35:17;;;;;;;2.97;2.43;;;18.50;97.80;;;;;;6273237;22;20410;-70
2022/05/12 05:37:46;;;;;;;3.30;2.37;;;18.50;97.80;;;;;;6272076;22;20453;-71
2022/05/12 05:40:15;;;;;;;3.13;2.37;;;18.60;97.90;;;;;;6272444;22;20425;-70
2022/05/12 05:42:43;;;;;;;3.30;2.47;;;18.60;97.80;;;;;;6272235;22;20418;-71
2022/05/12 05:45:12;;;;;;;3.77;2.43;;;18.70;97.90;;;;;;6272870;22;20464;-71
2022/05/12 05:47:40;;;;;;;3.50;2.30;;;18.90;98.10;;;;;;6272432;22;20498;-71
2022/05/12 05:50:08;;;;;;;4.37;2.30;;;19.00;97.60;;;;;;6271920;22;20423;-72
2022/05/12 05:55:21;;;;;;;2.53;2.33;;;19.20;97.70;;;;;;6272864;22;20410;-71
2022/05/12 05:57:49;;;;;;;3.60;2.13;;;19.30;97.10;;;;;;6271942;22;21158;-71
2022/05/12 06:00:17;;;;;;;2.20;1.90;;;19.30;97.00;;;;;;6271758;22;20419;-71
2022/05/12 06:02:44;;;;;;;3.30;2.03;;;19.30;97.30;;;;;;6272392;22;20446;-72
2022/05/12 06:05:11;;;;;;;2.60;2.40;;;19.30;97.30;;;;;;6272676;22;20930;-71
2022/05/12 06:07:38;;;;;;;3.33;2.60;;;19.30;97.40;;;;;;6272126;22;20418;-71
2022/05/12 06:10:07;;;;;;;4.93;2.30;;;19.30;97.60;;;;;;6271893;22;20415;-72
2022/05/12 06:12:35;;;;;;;4.47;2.50;;;19.20;97.50;;;;;;6271417;22;20761;-71
2022/05/12 06:15:02;;;;;;;2.93;2.20;;;19.20;97.60;;;;;;6272680;22;20414;-71
2022/05/12 06:17:29;;;;;;;2.87;2.27;;;19.30;97.80;;;;;;6272428;22;20957;-71
2022/05/12 06:19:56;;;;;;;3.93;2.10;;;19.40;97.80;;;;;;6271690;22;20737;-71
2022/05/12 06:22:22;;;;;;;4.87;2.70;;;19.40;97.80;;;;;;6271724;22;20422;-72
2022/05/12 06:24:50;;;;;;;3.23;2.90;;;19.50;98.00;;;;;;6271019;22;20425;-71
2022/05/12 06:27:19;;;;;;;3.10;2.20;;;19.60;98.10;;;;;;6270645;22;20421;-71
2022/05/12 06:29:47;;;;;;;4.73;2.70;;;19.60;97.60;;;;;;6270083;22;20442;-72
2022/05/12 06:32:15;;;;;;;2.10;1.90;;;19.70;97.60;;;;;;6271254;22;20428;-73
2022/05/12 06:34:42;;;;;;;3.43;2.60;;;19.70;97.40;;;;;;6271008;22;20419;-71
2022/05/12 06:37:10;;;;;;;2.60;2.40;;;19.80;97.60;;;;;;6270259;22;20837;-70
2022/05/12 06:39:38;;;;;;;3.63;2.17;;;19.90;97.60;;;;;;6269671;22;20938;-70
2022/05/12 06:42:05;;;;;;;2.60;2.40;;;19.90;97.50;;;;;;6271012;22;20751;-71
2022/05/12 06:44:34;;;;;;;3.73;2.47;;;20.10;97.70;;;;;;6270244;22;20749;-71
2022/05/12 06:47:02;;;;;;;3.53;2.10;;;20.20;97.30;;;;;;6269425;22;20450;-72
2022/05/12 06:49:29;;;;;;;2.47;2.27;;;20.30;97.40;;;;;;6269454;22;20470;-71
2022/05/12 06:51:56;;;;;;;3.17;2.50;;;20.30;98.00;;;;;;6268803;22;20425;-71
2022/05/12 06:54:23;;;;;;;2.87;2.27;;;20.40;98.10;;;;;;6271171;22;20472;-72
2022/05/12 06:56:50;;;;;;;2.43;2.20;;;20.40;98.00;;;;;;6271113;22;20422;-71
2022/05/12 06:59:17;;;;;;;5.23;2.67;;;20.40;97.40;;;;;;6270008;22;20824;-71
2022/05/12 07:01:43;;;;;;;2.10;2.00;;;20.40;97.40;;;;;;6269937;22;20411;-71
2022/05/12 07:04:11;;;;;;;2.30;2.10;;;20.30;97.00;;;;;;6270879;22;20425;-71
2022/05/12 07:06:38;;;;;;;2.97;2.50;;;20.30;96.70;;;;;;6270105;22;20429;-71
2022/05/12 07:09:05;;;;;;;4.43;2.70;;;20.30;96.60;;;;;;6270341;22;20434;-71
2022/05/12 07:11:32;;;;;;;5.43;3.40;;;20.30;96.80;;;;;;6270853;22;20496;-72
2022/05/12 07:13:58;;;;;;;4.23;2.70;;;20.30;96.80;;;;;;6270285;22;20472;-71
2022/05/12 07:16:25;;;;;;;2.60;2.40;;;20.20;96.80;;;;;;6270541;22;20418;-72
2022/05/12 07:18:52;;;;;;;4.80;2.77;;;20.30;97.60;;;;;;6269063;22;20451;-71
2022/05/12 07:26:50;;;;;;;3.23;2.10;;;20.70;97.60;;;;;;6272327;22;20532;-71
2022/05/12 07:29:19;;;;;;;3.00;2.70;;;20.80;97.70;;;;;;6270674;22;20434;-71
2022/05/12 07:31:47;;;;;;;2.13;1.97;;;20.90;97.80;;;;;;6272564;22;20418;-71
2022/05/12 07:34:13;;;;;;;3.57;2.10;;;21.00;97.20;;;;;;6272466;22;20422;-72
2022/05/12 07:36:44;;;;;;;2.50;2.30;;;21.10;97.70;;;;;;6272866;22;20418;-71
2022/05/12 07:39:12;;;;;;;4.33;2.40;;;21.10;97.40;;;;;;6272880;22;20453;-71
2022/05/12 07:41:41;;;;;;;2.80;2.40;;;21.10;96.90;;;;;;6273768;22;20484;-71
2022/05/12 07:44:08;;;;;;;2.60;2.40;;;21.10;97.00;;;;;;6274220;22;20422;-71
2022/05/12 07:46:35;;;;;;;4.13;2.20;;;21.00;97.70;;;;;;6273947;22;20441;-72
2022/05/12 07:49:01;;;;;;;2.40;2.20;;;21.00;98.00;;;;;;6273912;22;20442;-71
2022/05/12 07:51:29;;;;;;;3.07;2.13;;;21.00;97.40;;;;;;6273377;22;20419;-71
2022/05/12 07:53:57;;;;;;;4.27;2.40;;;20.80;97.30;;;;;;6274320;22;20446;-71
2022/05/12 07:56:26;;;;;;;2.63;2.43;;;20.80;97.70;;;;;;6274471;22;20418;-72
2022/05/12 07:58:54;;;;;;;3.70;2.33;;;20.80;98.40;;;;;;6273126;22;20776;-72
2022/05/12 08:01:21;;;;;;;2.50;2.17;;;21.00;98.40;;;;;;6274320;22;20418;-71
2022/05/12 08:03:48;;;;;;;6.83;2.27;;;21.10;97.50;;;;;;6273131;22;20418;-71
2022/05/12 08:06:16;;;;;;;2.50;2.30;;;21.10;97.70;;;;;;6273900;22;20433;-71
2022/05/12 08:08:43;;;;;;;2.73;2.53;;;21.20;97.90;;;;;;6272518;22;20470;-72
2022/05/12 08:11:12;;;;;;;4.97;2.50;;;21.30;97.80;;;;;;6274123;22;20787;-72
2022/05/12 08:13:39;;;;;;;5.57;2.57;;;21.40;97.10;;;;;;6273295;22;20421;-72
2022/05/12 08:16:07;;;;;;;2.40;2.20;;;21.50;98.00;;;;;;6273735;22;20425;-71
2022/05/12 08:18:35;;;;;;;2.20;2.00;;;21.60;96.90;;;;;;6272322;22;20442;-71
2022/05/12 08:21:02;;;;;;;2.93;2.50;;;21.80;97.40;;;;;;6274155;22;20446;-71
2022/05/12 08:23:29;;;;;;;4.40;2.43;;;22.00;96.40;;;;;;6273333;22;20796;-72
2022/05/12 08:25:56;;;;;;;3.93;2.37;;;22.20;97.50;;;;;;6274455;22;20730;-71
2022/05/12 08:28:25;;;;;;;2.77;2.23;;;22.30;96.80;;;;;;6273956;22;20441;-71
2022/05/12 08:30:53;;;;;;;2.70;2.17;;;22.40;97.20;;;;;;6273768;22;20916;-71
2022/05/12 08:33:21;;;;;;;2.20;2.00;;;22.40;96.80;;;;;;6274697;22;20419;-71
2022/05/12 08:35:48;;;;;;;3.87;2.50;;;22.60;96.50;;;;;;6273083;22;20422;-72
2022/05/12 08:38:16;;;;;;;3.03;2.30;;;22.90;96.20;;;;;;6273713;22;20450;-71
2022/05/12 08:40:50;;;;;;;4.17;2.73;;;23.00;96.50;;;;;;6273826;22;20421;-72
2022/05/12 08:43:19;;;;;;;3.03;2.13;;;23.20;95.80;;;;;;6274465;22;20404;-71
2022/05/12 08:45:48;;;;;;;2.87;2.47;;;23.30;95.00;;;;;;6272977;22;20422;-71
2022/05/12 08:48:16;;;;;;;3.50;2.20;;;23.30;95.70;;;;;;6273425;22;20454;-72
2022/05/12 08:50:49;;;;;;;4.87;2.40;;;23.20;94.60;;;;;;6273933;22;20938;-71
2022/05/12 08:53:19;;;;;;;2.60;2.40;;;23.10;94.70;;;;;;6274661;22;20403;-71
2022/05/12 08:55:50;;;;;;;3.83;2.30;;;23.20;95.40;;;;;;6273999;22;20414;-72
2022/05/12 08:58:22;;;;;;;3.63;2.33;;;23.30;95.60;;;;;;6273143;22;20529;-72
2022/05/12 09:00:59;;;;;;;3.23;2.93;;;23.40;95.20;;;;;;6274135;22;20414;-72
2022/05/12 09:03:35;;;;;;;3.30;2.63;;;23.70;94.70;;;;;;6273450;22;20406;-71
2022/05/12 09:06:04;;;;;;;4.90;2.63;;;23.90;94.80;;;;;;6273921;22;20398;-72
2022/05/12 09:08:38;;;;;;;3.77;2.83;;;24.30;95.80;;;;;;6270735;22;20434;-71
2022/05/12 09:11:11;;;;;;;3.13;2.60;;;24.70;93.80;;;;;;6272546;22;20402;-72
2022/05/12 09:13:42;;;;;;;2.73;2.23;;;25.10;93.50;;;;;;6272776;22;20886;-72
2022/05/12 09:16:17;;;;;;;5.03;3.23;;;25.50;93.60;;;;;;6273328;22;20403;-71
2022/05/12 09:18:44;;;;;;;2.70;2.50;;;25.20;93.10;;;;;;6271601;22;20446;-71
2022/05/12 09:21:13;;;;;;;2.90;2.70;;;25.10;94.00;;;;;;6273561;22;20461;-72
2022/05/12 09:23:40;;;;;;;3.30;2.73;;;25.10;94.10;;;;;;6272199;22;20422;-72
2022/05/12 09:26:37;;;;;;;2.40;2.20;;;25.30;94.30;;;;;;6273014;22;20414;-71
2022/05/12 09:29:14;;;;;;;2.90;2.60;;;25.50;93.10;;;;;;6267550;22;20511;-72
2022/05/12 09:31:45;;;;;;;2.73;2.53;;;25.60;92.70;;;;;;6272559;22;20447;-72
2022/05/12 09:34:24;;;;;;;5.03;2.80;;;26.20;93.20;;;;;;6272861;22;20414;-72
2022/05/12 09:36:51;;;;;;;4.40;2.80;;;26.10;91.30;;;;;;6272213;22;20421;-71
2022/05/12 09:39:33;;;;;;;3.20;2.90;;;25.60;91.90;;;;;;6271904;22;20458;-72
2022/05/12 09:42:01;;;;;;;3.73;3.30;;;25.10;92.40;;;;;;6272744;22;20445;-71
2022/05/12 09:44:30;;;;;;;3.20;2.90;;;24.90;92.80;;;;;;6272914;22;20418;-72
2022/05/12 09:47:01;;;;;;;3.60;3.30;;;24.90;93.10;;;;;;6272124;22;20418;-72
2022/05/12 09:49:32;;;;;;;3.30;3.00;;;24.90;92.70;;;;;;6272131;22;20493;-72
2022/05/12 09:52:19;;;;;;;3.40;2.70;;;24.80;92.80;;;;;;6272746;22;20818;-72
2022/05/12 09:54:46;;;;;;;3.13;2.93;;;24.50;92.80;;;;;;6272462;22;20711;-73
2022/05/12 09:57:17;;;;;;;3.20;2.80;;;24.20;93.30;;;;;;6272882;22;20418;-72
2022/05/12 09:59:52;;;;;;;4.70;3.17;;;24.60;93.80;;;;;;6270756;22;20441;-71
2022/05/12 10:08:18;;;;;;;3.90;3.10;;;25.30;92.70;;;;;;6271799;22;20421;-72
2022/05/12 10:10:47;;;;;;;4.00;3.63;;;26.10;91.50;;;;;;6272391;22;20786;-72
2022/05/12 10:13:23;;;;;;;4.43;3.80;;;26.80;90.60;;;;;;6272713;22;20415;-72
2022/05/12 10:15:52;;;;;;;4.87;4.37;;;26.40;90.60;;;;;;6272335;22;20402;-71
2022/05/12 10:18:29;;;;;;;5.70;5.20;;;26.30;91.50;;;;;;6271361;22;20978;-72
2022/05/12 10:20:58;;;;;;;4.43;3.30;;;26.00;91.40;;;;;;6272253;22;20425;-72
2022/05/12 10:23:33;;;;;;;4.50;3.27;;;26.20;91.40;;;;;;6272340;22;20419;-71
2022/05/12 10:26:06;;;;;;;4.97;3.57;;;26.30;90.40;;;;;;6272941;22;20405;-72
2022/05/12 10:28:49;;;;;;;4.43;4.03;;;25.70;91.10;;;;;;6271302;22;20776;-72
2022/05/12 10:31:25;;;;;;;3.80;3.40;;;25.80;92.50;;;;;;6273065;22;20402;-71
2022/05/12 10:34:02;;;;;;;3.83;3.53;;;25.80;91.20;;;;;;6271901;22;20417;-72
2022/05/12 10:36:41;;;;;;;5.00;3.40;;;25.80;91.70;;;;;;6271690;22;20399;-72
2022/05/12 10:39:16;;;;;;;4.17;3.10;;;25.60;91.70;;;;;;6271237;22;20529;-72
2022/05/12 10:41:54;;;;;;;5.40;3.37;;;25.30;92.30;;;;;;6272392;22;20409;-71
2022/05/12 10:44:34;;;;;;;3.37;3.07;;;25.30;92.40;;;;;;6272154;22;20402;-72
2022/05/12 10:47:08;;;;;;;3.27;3.07;;;25.20;92.50;;;;;;6272857;22;20410;-71
2022/05/12 10:49:42;;;;;;;4.80;3.57;;;24.90;93.00;;;;;;6270632;22;20442;-72
2022/05/12 10:52:29;;;;;;;3.97;3.50;;;24.90;93.00;;;;;;6272844;22;20399;-71
2022/05/12 10:55:10;;;;;;;3.70;3.40;;;25.20;92.80;;;;;;6272647;22;20407;-72
2022/05/12 10:57:46;;;;;;;4.03;3.10;;;25.50;91.70;;;;;;6273079;22;20398;-72
2022/05/12 11:00:30;;;;;;;3.97;3.67;;;25.50;91.80;;;;;;6273951;22;20425;-71
2022/05/12 11:03:02;;;;;;;4.30;3.90;;;25.50;91.40;;;;;;6273702;22;20402;-71
2022/05/12 11:05:34;;;;;;;4.30;3.67;;;25.20;91.30;;;;;;6274924;22;20410;-71
2022/05/12 11:08:07;;;;;;;4.40;3.73;;;25.00;91.00;;;;;;6273465;22;20442;-72
2022/05/12 11:10:41;;;;;;;4.40;3.90;;;24.60;91.70;;;;;;6274992;22;20399;-71
2022/05/12 11:13:12;;;;;;;4.63;3.50;;;24.50;92.20;;;;;;6273693;22;20897;-71
2022/05/12 11:15:47;;;;;;;4.00;3.37;;;24.80;93.60;;;;;;6274806;22;20446;-71
2022/05/12 11:18:22;;;;;;;4.07;2.93;;;25.20;93.20;;;;;;6273468;22;20468;-71
2022/05/12 11:20:59;;;;;;;4.33;4.03;;;25.30;92.20;;;;;;6274492;22;20397;-72
2022/05/12 11:23:38;;;;;;;4.43;3.07;;;25.50;93.30;;;;;;6274894;22;20412;-72
2022/05/12 11:26:09;;;;;;;3.60;3.30;;;25.70;92.80;;;;;;6274452;22;20399;-72
2022/05/12 11:31:32;;;;;;;3.93;3.10;;;26.00;92.00;;;;;;6284810;22;20432;-72
2022/05/12 11:34:04;;;;;;;4.33;3.40;;;25.80;92.30;;;;;;6273883;22;20398;-72
2022/05/12 11:36:40;;;;;;;4.33;3.87;;;25.70;93.50;;;;;;6273301;22;20408;-72
2022/05/12 11:39:54;;;;;;;4.07;3.33;;;25.70;92.60;;;;;;6273049;22;20445;-72
2022/05/12 11:42:22;;;;;;;4.50;3.40;;;25.60;91.90;;;;;;6149936;23;20406;-72
2022/05/12 11:45:02;;;;;;;3.30;3.00;;;25.40;93.00;;;;;;6260254;22;20418;-71
2022/05/12 11:47:59;;;;;;;4.37;3.70;;;25.30;92.70;;;;;;6274296;22;20438;-72
2022/05/12 11:50:52;;;;;;;4.33;3.90;;;25.10;92.30;;;;;;6274181;22;20401;-72
2022/05/12 11:53:23;;;;;;;5.30;3.53;;;25.10;92.90;;;;;;6274777;22;20407;-71
2022/05/12 11:56:08;;;;;;;5.70;3.83;;;25.50;92.80;;;;;;6273762;22;20410;-71
2022/05/12 11:58:40;;;;;;;4.50;3.77;;;25.80;92.30;;;;;;6272471;22;20444;-71
2022/05/12 12:01:10;;;;;;;5.67;3.57;;;26.20;91.00;;;;;;6273375;22;20403;-72
2022/05/12 12:03:51;;;;;;;5.93;4.23;;;26.50;90.40;;;;;;6274303;22;20402;-72
2022/05/12 12:06:52;;;;;;;4.13;3.73;;;26.60;88.40;;;;;;6274128;22;20438;-72
2022/05/12 12:09:33;;;;;;;3.63;3.33;;;27.10;90.20;;;;;;6272586;22;20475;-71
2022/05/12 12:12:00;;;;;;;5.80;4.40;;;27.60;91.20;;;;;;6274468;22;20400;-71
2022/05/12 12:14:56;;;;;;;4.03;3.03;;;28.00;90.00;;;;;;6274683;22;20414;-71
2022/05/12 12:17:32;;;;;;;7.40;3.60;;;28.10;90.30;;;;;;6274581;22;20753;-71
2022/05/12 12:20:04;;;;;;;4.07;3.70;;;28.40;90.50;;;;;;6272054;22;20446;-71
2022/05/12 12:22:44;;;;;;;3.77;3.47;;;28.50;89.20;;;;;;6272838;22;20480;-71
2022/05/12 12:25:27;;;;;;;4.03;3.63;;;28.40;87.50;;;;;;6272534;22;20716;-71
2022/05/12 12:28:21;;;;;;;5.37;4.03;;;28.00;88.10;;;;;;6272387;22;20407;-71
2022/05/12 12:31:08;;;;;;;4.07;3.77;;;27.50;90.00;;;;;;6273563;22;20399;-71
2022/05/12 12:34:06;;;;;;;4.20;3.57;;;27.20;90.30;;;;;;6273801;22;20402;-71
2022/05/12 12:37:06;;;;;;;4.80;3.53;;;27.00;89.20;;;;;;6272782;22;20410;-71
2022/05/12 12:39:40;;;;;;;4.47;3.90;;;27.00;86.20;;;;;;6262256;22;20457;-71
2022/05/12 12:42:24;;;;;;;4.37;3.70;;;27.10;86.40;;;;;;6273289;22;20414;-71
2022/05/12 12:44:52;;;;;;;4.43;4.03;;;26.90;83.20;;;;;;6273693;22;20417;-71
2022/05/12 12:47:44;;;;;;;4.13;3.83;;;26.80;85.40;;;;;;6273473;22;20424;-71
2022/05/12 12:50:24;;;;;;;4.57;4.17;;;26.70;89.20;;;;;;6271696;22;20441;-71
2022/05/12 12:52:56;;;;;;;4.63;4.13;;;26.70;90.20;;;;;;6273642;22;20406;-71
2022/05/12 12:58:17;;;;;;;3.87;3.47;;;26.60;85.40;;;;;;6272479;22;20514;-71
2022/05/12 13:00:44;;;;;;;4.10;3.70;;;26.60;86.30;;;;;;6273109;22;20485;-71
2022/05/12 13:03:20;;;;;;;5.13;3.90;;;26.60;85.80;;;;;;6273309;22;20442;-71
2022/05/12 13:05:47;;;;;;;4.00;3.70;;;26.50;85.60;;;;;;6272958;22;20733;-71
2022/05/12 13:08:23;;;;;;;4.10;3.70;;;26.50;84.20;;;;;;6272847;22;20438;-71
2022/05/12 13:10:57;;;;;;;4.30;3.90;;;26.50;85.90;;;;;;6273189;22;20404;-72
2022/05/12 13:13:26;;;;;;;4.00;3.67;;;26.50;85.70;;;;;;6274114;22;20511;-71
2022/05/12 13:15:57;;;;;;;6.87;3.73;;;26.30;86.60;;;;;;6272633;22;20419;-71
2022/05/12 13:18:28;;;;;;;4.50;4.03;;;26.30;86.50;;;;;;6272421;22;20526;-72
2022/05/12 13:20:57;;;;;;;5.73;3.87;;;26.20;87.20;;;;;;6273163;22;20461;-71
2022/05/12 13:23:26;;;;;;;4.83;3.90;;;26.00;86.00;;;;;;6273282;22;20434;-71
2022/05/12 13:25:53;;;;;;;6.53;3.87;;;25.90;86.90;;;;;;6272658;22;20422;-71
2022/05/12 13:28:23;;;;;;;4.20;3.50;;;25.80;87.30;;;;;;6271884;22;20434;-71
2022/05/12 13:30:53;;;;;;;4.87;3.87;;;25.70;87.10;;;;;;6272668;22;20440;-72